createdAt,value
2019-03-16T00:01:08.425Z,7.80
2019-03-16T00:03:34.766Z,7.70
2019-03-16T00:06:01.087Z,7.80
2019-03-16T00:08:27.438Z,7.70
2019-03-16T00:10:53.769Z,7.70
2019-03-16T00:13:20.545Z,7.70
2019-03-16T00:15:46.923Z,7.70
2019-03-16T00:18:13.268Z,7.70
2019-03-16T00:20:41.652Z,7.70
2019-03-16T00:23:08.574Z,7.70
2019-03-16T00:25:35.202Z,7.60
2019-03-16T00:28:01.857Z,7.60
2019-03-16T00:30:28.208Z,7.60
2019-03-16T00:32:54.812Z,7.60
2019-03-16T00:35:21.173Z,7.60
2019-03-16T00:37:47.892Z,7.60
2019-03-16T00:40:14.473Z,7.50
2019-03-16T00:42:41.191Z,7.50
2019-03-16T00:45:10.626Z,7.50
2019-03-16T00:47:37.368Z,7.50
2019-03-16T00:50:08.793Z,7.50
2019-03-16T00:52:35.523Z,7.50
2019-03-16T00:55:03.109Z,7.60
2019-03-16T00:57:29.825Z,7.50
2019-03-16T00:59:56.149Z,7.50
2019-03-16T01:02:27.282Z,7.60
2019-03-16T01:04:51.049Z,7.60
2019-03-16T01:07:17.373Z,7.60
2019-03-16T01:09:43.896Z,7.60
2019-03-16T01:12:10.337Z,7.60
2019-03-16T01:14:36.713Z,7.60
2019-03-16T01:17:03.334Z,7.60
2019-03-16T01:19:29.970Z,7.60
2019-03-16T01:21:56.382Z,7.60
2019-03-16T01:24:23.246Z,7.60
2019-03-16T01:26:49.579Z,7.60
2019-03-16T01:29:15.893Z,7.60
2019-03-16T01:31:42.529Z,7.60
2019-03-16T01:34:08.865Z,7.50
2019-03-16T01:36:35.514Z,7.50
2019-03-16T01:39:05.124Z,7.50
2019-03-16T01:41:31.450Z,7.50
2019-03-16T01:43:58.098Z,7.50
2019-03-16T01:46:27.675Z,7.50
2019-03-16T01:48:54.024Z,7.40
2019-03-16T01:51:20.373Z,7.40
2019-03-16T01:53:46.692Z,7.40
2019-03-16T01:56:13.033Z,7.40
2019-03-16T01:58:39.384Z,7.40
2019-03-16T02:01:05.718Z,7.40
2019-03-16T02:03:32.501Z,7.40
2019-03-16T02:05:59.155Z,7.40
2019-03-16T02:08:25.490Z,7.30
2019-03-16T02:10:52.139Z,7.30
2019-03-16T02:13:18.481Z,7.30
2019-03-16T02:15:45.097Z,7.30
2019-03-16T02:18:11.510Z,7.40
2019-03-16T02:20:38.308Z,7.40
2019-03-16T02:23:04.617Z,7.30
2019-03-16T02:25:30.966Z,7.40
2019-03-16T02:27:57.567Z,7.40
2019-03-16T02:30:24.338Z,7.40
2019-03-16T02:32:50.651Z,7.40
2019-03-16T02:35:17.408Z,7.40
2019-03-16T02:37:43.851Z,7.40
2019-03-16T02:40:10.178Z,7.40
2019-03-16T02:42:36.518Z,7.50
2019-03-16T02:45:08.907Z,7.50
2019-03-16T02:47:35.615Z,7.50
2019-03-16T02:50:08.101Z,7.50
2019-03-16T02:52:34.515Z,7.50
2019-03-16T02:55:00.831Z,7.60
2019-03-16T02:57:27.497Z,7.60
2019-03-16T02:59:53.838Z,7.60
2019-03-16T03:02:20.165Z,7.60
2019-03-16T03:04:46.855Z,7.50
2019-03-16T03:07:13.308Z,7.40
2019-03-16T03:09:40.002Z,7.40
2019-03-16T03:12:06.415Z,7.40
2019-03-16T03:14:32.739Z,7.40
2019-03-16T03:16:59.056Z,7.40
2019-03-16T03:19:25.386Z,7.40
2019-03-16T03:21:51.724Z,7.40
2019-03-16T03:24:18.048Z,7.40
2019-03-16T03:26:44.398Z,7.40
2019-03-16T03:29:10.712Z,7.30
2019-03-16T03:31:37.357Z,7.40
2019-03-16T03:34:04.007Z,7.40
2019-03-16T03:36:30.454Z,7.40
2019-03-16T03:38:56.754Z,7.40
2019-03-16T03:41:23.089Z,7.40
2019-03-16T03:43:49.440Z,7.40
2019-03-16T03:46:15.771Z,7.40
2019-03-16T03:48:42.091Z,7.40
2019-03-16T03:51:08.725Z,7.40
2019-03-16T03:53:35.034Z,7.50
2019-03-16T03:56:01.364Z,7.50
2019-03-16T03:58:27.696Z,7.50
2019-03-16T04:00:54.366Z,7.50
2019-03-16T04:03:20.996Z,7.50
2019-03-16T04:05:47.295Z,7.40
2019-03-16T04:08:13.630Z,7.50
2019-03-16T04:10:39.942Z,7.40
2019-03-16T04:13:06.622Z,7.40
2019-03-16T04:15:33.247Z,7.40
2019-03-16T04:18:00.293Z,7.40
2019-03-16T04:20:27.037Z,7.50
2019-03-16T04:22:53.473Z,7.40
2019-03-16T04:25:19.812Z,7.40
2019-03-16T04:27:46.136Z,7.50
2019-03-16T04:30:12.874Z,7.40
2019-03-16T04:32:39.171Z,7.40
2019-03-16T04:35:05.508Z,7.40
2019-03-16T04:37:31.847Z,7.40
2019-03-16T04:39:58.198Z,7.40
2019-03-16T04:42:24.544Z,7.50
2019-03-16T04:44:51.168Z,7.50
2019-03-16T04:47:17.523Z,7.50
2019-03-16T04:49:43.851Z,7.50
2019-03-16T04:52:10.191Z,7.40
2019-03-16T04:54:36.804Z,7.40
2019-03-16T04:57:03.153Z,7.40
2019-03-16T04:59:29.490Z,7.30
2019-03-16T05:01:56.213Z,7.30
2019-03-16T05:04:22.911Z,7.40
2019-03-16T05:06:49.609Z,7.40
2019-03-16T05:09:16.239Z,7.30
2019-03-16T05:11:42.983Z,7.40
2019-03-16T05:14:09.616Z,7.30
2019-03-16T05:16:37.281Z,7.40
2019-03-16T05:19:03.625Z,7.40
2019-03-16T05:21:29.939Z,7.40
2019-03-16T05:23:56.578Z,7.40
2019-03-16T05:26:22.936Z,7.40
2019-03-16T05:28:49.265Z,7.30
2019-03-16T05:31:16.035Z,7.40
2019-03-16T05:33:42.359Z,7.30
2019-03-16T05:36:08.693Z,7.40
2019-03-16T05:38:35.364Z,7.50
2019-03-16T05:41:02.321Z,7.50
2019-03-16T05:43:28.953Z,7.50
2019-03-16T05:45:55.285Z,7.50
2019-03-16T05:48:21.626Z,7.50
2019-03-16T05:50:48.271Z,7.50
2019-03-16T05:53:14.598Z,7.60
2019-03-16T05:55:40.892Z,7.60
2019-03-16T05:58:07.578Z,7.60
2019-03-16T06:00:34.294Z,7.60
2019-03-16T06:03:00.982Z,7.60
2019-03-16T06:05:27.671Z,7.70
2019-03-16T06:07:54.321Z,7.70
2019-03-16T06:10:20.625Z,7.60
2019-03-16T06:12:47.020Z,7.70
2019-03-16T06:15:13.731Z,7.70
2019-03-16T06:17:40.147Z,7.70
2019-03-16T06:20:10.126Z,7.70
2019-03-16T06:22:36.726Z,7.80
2019-03-16T06:25:06.281Z,7.80
2019-03-16T06:27:32.600Z,7.80
2019-03-16T06:29:59.001Z,7.90
2019-03-16T06:32:25.616Z,7.90
2019-03-16T06:34:53.269Z,7.90
2019-03-16T06:37:22.408Z,7.90
2019-03-16T06:39:48.732Z,7.80
2019-03-16T06:42:15.282Z,7.80
2019-03-16T06:44:41.875Z,7.80
2019-03-16T06:47:08.532Z,7.80
2019-03-16T06:49:34.887Z,7.80
2019-03-16T06:52:01.479Z,7.90
2019-03-16T06:54:27.811Z,8.00
2019-03-16T06:56:54.590Z,7.90
2019-03-16T06:59:21.202Z,7.80
2019-03-16T07:01:48.868Z,7.90
2019-03-16T07:04:15.189Z,8.00
2019-03-16T07:06:41.511Z,8.10
2019-03-16T07:09:07.813Z,8.10
2019-03-16T07:11:34.495Z,8.30
2019-03-16T07:14:00.952Z,8.20
2019-03-16T07:16:27.282Z,8.20
2019-03-16T07:18:58.648Z,8.20
2019-03-16T07:21:22.510Z,8.30
2019-03-16T07:23:49.940Z,8.20
2019-03-16T07:26:16.243Z,8.40
2019-03-16T07:28:42.930Z,8.40
2019-03-16T07:31:09.266Z,8.30
2019-03-16T07:33:35.886Z,8.30
2019-03-16T07:36:02.513Z,8.30
2019-03-16T07:38:28.925Z,8.40
2019-03-16T07:40:55.293Z,8.40
2019-03-16T07:43:21.589Z,8.60
2019-03-16T07:45:48.938Z,8.70
2019-03-16T07:48:15.343Z,8.70
2019-03-16T07:50:42.069Z,8.80
2019-03-16T07:53:08.373Z,9.00
2019-03-16T07:55:34.723Z,9.20
2019-03-16T07:58:01.029Z,9.20
2019-03-16T08:00:27.563Z,9.20
2019-03-16T08:02:53.890Z,9.10
2019-03-16T08:05:20.548Z,9.20
2019-03-16T08:07:46.887Z,9.00
2019-03-16T08:10:14.582Z,8.90
2019-03-16T08:12:41.272Z,9.00
2019-03-16T08:15:09.405Z,9.10
2019-03-16T08:17:36.108Z,9.20
2019-03-16T08:20:06.013Z,9.10
2019-03-16T08:22:32.641Z,9.00
2019-03-16T08:24:58.990Z,9.00
2019-03-16T08:27:25.610Z,8.90
2019-03-16T08:29:51.979Z,8.90
2019-03-16T08:32:18.797Z,9.00
2019-03-16T08:34:45.540Z,8.90
2019-03-16T08:37:12.179Z,8.80
2019-03-16T08:39:38.509Z,8.70
2019-03-16T08:42:04.854Z,8.70
2019-03-16T08:44:31.462Z,8.50
2019-03-16T08:46:58.134Z,8.50
2019-03-16T08:49:24.478Z,8.50
2019-03-16T08:51:50.920Z,8.80
2019-03-16T08:54:17.265Z,8.70
2019-03-16T08:56:43.603Z,8.90
2019-03-16T08:59:09.931Z,8.70
2019-03-16T09:01:36.324Z,8.60
2019-03-16T09:04:02.645Z,8.40
2019-03-16T09:06:29.270Z,8.00
2019-03-16T09:08:55.901Z,7.90
2019-03-16T09:11:22.235Z,7.70
2019-03-16T09:13:48.546Z,7.70
2019-03-16T09:16:15.179Z,7.70
2019-03-16T09:18:41.537Z,7.60
2019-03-16T09:21:08.182Z,7.50
2019-03-16T09:23:34.497Z,7.40
2019-03-16T09:26:01.150Z,7.20
2019-03-16T09:28:27.464Z,7.00
2019-03-16T09:30:56.413Z,6.90
2019-03-16T09:33:24.118Z,6.80
2019-03-16T09:35:50.926Z,6.70
2019-03-16T09:38:17.521Z,6.70
2019-03-16T09:40:44.166Z,6.90
2019-03-16T09:43:10.456Z,6.60
2019-03-16T09:45:37.123Z,6.60
2019-03-16T09:48:03.859Z,6.60
2019-03-16T09:50:30.495Z,6.70
2019-03-16T09:52:57.234Z,6.80
2019-03-16T09:55:23.870Z,6.70
2019-03-16T09:57:50.652Z,6.60
2019-03-16T10:00:17.380Z,6.60
2019-03-16T10:02:43.741Z,6.70
2019-03-16T10:05:10.040Z,6.70
2019-03-16T10:07:36.790Z,6.70
2019-03-16T10:10:13.577Z,6.90
2019-03-16T10:12:40.392Z,6.80
2019-03-16T10:15:10.389Z,6.50
2019-03-16T10:17:37.038Z,6.40
2019-03-16T10:20:12.187Z,6.30
2019-03-16T10:22:38.494Z,6.40
2019-03-16T10:25:06.294Z,6.30
2019-03-16T10:27:32.604Z,6.30
2019-03-16T10:30:00.847Z,6.50
2019-03-16T10:32:27.623Z,6.40
2019-03-16T10:34:54.041Z,6.50
2019-03-16T10:37:21.007Z,6.60
2019-03-16T10:39:47.334Z,6.70
2019-03-16T10:42:13.973Z,6.80
2019-03-16T10:44:40.290Z,7.20
2019-03-16T10:47:06.943Z,7.50
2019-03-16T10:49:33.282Z,7.50
2019-03-16T10:51:59.934Z,7.80
2019-03-16T10:54:26.272Z,7.30
2019-03-16T10:56:52.578Z,7.50
2019-03-16T10:59:18.939Z,7.60
2019-03-16T11:01:45.693Z,7.30
2019-03-16T11:04:12.394Z,7.60
2019-03-16T11:06:38.812Z,7.80
2019-03-16T11:09:05.715Z,7.40
2019-03-16T11:11:32.125Z,7.50
2019-03-16T11:13:59.699Z,7.40
2019-03-16T11:16:26.408Z,7.10
2019-03-16T11:18:53.104Z,7.60
2019-03-16T11:21:19.515Z,7.90
2019-03-16T11:23:46.200Z,7.90
2019-03-16T11:26:13.519Z,7.80
2019-03-16T11:28:41.778Z,7.30
2019-03-16T11:31:08.500Z,7.50
2019-03-16T11:33:34.825Z,7.70
2019-03-16T11:36:01.190Z,8.00
2019-03-16T11:38:27.561Z,7.70
2019-03-16T11:40:53.980Z,7.50
2019-03-16T11:43:20.659Z,7.50
2019-03-16T11:45:46.969Z,7.60
2019-03-16T11:48:13.676Z,7.40
2019-03-16T11:50:40.038Z,8.00
2019-03-16T11:53:06.787Z,7.90
2019-03-16T11:55:33.120Z,7.80
2019-03-16T11:58:02.245Z,7.70
2019-03-16T12:00:28.906Z,7.90
2019-03-16T12:02:55.497Z,8.00
2019-03-16T12:05:21.945Z,8.10
2019-03-16T12:07:48.583Z,7.90
2019-03-16T12:10:14.914Z,8.50
2019-03-16T12:12:41.254Z,8.60
2019-03-16T12:15:12.573Z,8.50
2019-03-16T12:17:39.222Z,8.50
2019-03-16T12:20:14.430Z,9.00
2019-03-16T12:22:40.781Z,9.30
2019-03-16T12:25:07.442Z,9.70
2019-03-16T12:27:34.088Z,9.70
2019-03-16T12:30:00.494Z,10.10
2019-03-16T12:32:31.230Z,10.50
2019-03-16T12:34:57.602Z,10.80
2019-03-16T12:37:24.363Z,9.90
2019-03-16T12:39:50.804Z,10.10
2019-03-16T12:42:17.158Z,10.10
2019-03-16T12:44:43.475Z,9.60
2019-03-16T12:47:10.659Z,9.50
2019-03-16T12:49:37.001Z,9.70
2019-03-16T12:52:03.369Z,9.70
2019-03-16T12:54:29.714Z,9.70
2019-03-16T12:56:56.425Z,9.60
2019-03-16T12:59:23.124Z,9.80
2019-03-16T13:01:49.460Z,9.70
2019-03-16T13:04:16.214Z,9.40
2019-03-16T13:06:42.833Z,9.40
2019-03-16T13:09:09.185Z,9.30
2019-03-16T13:11:35.903Z,9.00
2019-03-16T13:14:02.367Z,8.90
2019-03-16T13:16:28.670Z,8.60
2019-03-16T13:18:55.323Z,8.70
2019-03-16T13:21:21.684Z,8.80
2019-03-16T13:23:48.397Z,8.70
2019-03-16T13:26:15.163Z,8.80
2019-03-16T13:28:41.883Z,8.90
2019-03-16T13:31:08.549Z,8.80
2019-03-16T13:33:34.858Z,9.00
2019-03-16T13:36:02.488Z,9.00
2019-03-16T13:38:29.141Z,8.90
2019-03-16T13:40:55.576Z,9.10
2019-03-16T13:43:22.212Z,9.20
2019-03-16T13:45:48.659Z,9.50
2019-03-16T13:48:15.012Z,8.90
2019-03-16T13:50:41.334Z,9.30
2019-03-16T13:53:08.496Z,9.40
2019-03-16T13:55:34.953Z,9.50
2019-03-16T13:58:01.648Z,9.60
2019-03-16T14:00:28.385Z,9.40
2019-03-16T14:02:54.747Z,9.70
2019-03-16T14:05:21.340Z,9.50
2019-03-16T14:07:49.009Z,9.50
2019-03-16T14:10:22.220Z,9.50
2019-03-16T14:12:48.558Z,9.80
2019-03-16T14:15:14.916Z,9.90
2019-03-16T14:17:41.776Z,10.00
2019-03-16T14:20:12.411Z,10.00
2019-03-16T14:22:38.750Z,10.00
2019-03-16T14:25:07.803Z,9.80
2019-03-16T14:27:34.147Z,9.80
2019-03-16T14:30:00.483Z,9.60
2019-03-16T14:32:26.878Z,9.70
2019-03-16T14:34:53.511Z,9.70
2019-03-16T14:37:20.442Z,9.70
2019-03-16T14:39:46.785Z,9.50
2019-03-16T14:42:13.533Z,9.50
2019-03-16T14:44:40.113Z,9.70
2019-03-16T14:47:06.728Z,9.70
2019-03-16T14:49:33.471Z,9.90
2019-03-16T14:51:59.927Z,9.80
2019-03-16T14:54:26.215Z,9.80
2019-03-16T14:56:52.968Z,10.00
2019-03-16T14:59:21.272Z,10.00
2019-03-16T15:01:48.343Z,9.80
2019-03-16T15:04:14.738Z,10.00
2019-03-16T15:06:41.469Z,10.00
2019-03-16T15:09:08.328Z,10.00
2019-03-16T15:11:35.101Z,10.10
2019-03-16T15:14:01.764Z,10.00
2019-03-16T15:16:28.125Z,10.10
2019-03-16T15:18:54.457Z,10.10
2019-03-16T15:21:21.139Z,10.20
2019-03-16T15:23:47.521Z,10.20
2019-03-16T15:26:14.228Z,10.10
2019-03-16T15:28:40.543Z,10.50
2019-03-16T15:31:13.074Z,10.80
2019-03-16T15:33:39.442Z,10.90
2019-03-16T15:36:06.122Z,11.00
2019-03-16T15:38:32.556Z,11.10
2019-03-16T15:40:59.064Z,11.00
2019-03-16T15:43:25.395Z,11.10
2019-03-16T15:45:51.720Z,11.10
2019-03-16T15:48:19.174Z,11.10
2019-03-16T15:50:47.460Z,11.10
2019-03-16T15:53:13.808Z,11.10
2019-03-16T16:28:03.889Z,11.30
2019-03-16T16:30:30.185Z,11.30
2019-03-16T16:32:56.908Z,11.30
2019-03-16T16:35:23.524Z,11.30
2019-03-16T16:37:49.856Z,11.30
2019-03-16T16:40:18.543Z,11.30
2019-03-16T16:42:44.876Z,11.30
2019-03-16T16:45:17.034Z,11.20
2019-03-16T16:47:43.952Z,11.30
2019-03-16T16:50:14.861Z,11.30
2019-03-16T16:52:41.513Z,11.30
2019-03-16T16:55:09.130Z,11.30
2019-03-16T16:57:41.928Z,11.30
2019-03-16T17:00:44.449Z,11.30
2019-03-16T17:03:11.978Z,11.40
2019-03-16T17:05:38.588Z,11.30
2019-03-16T17:08:29.516Z,11.30
2019-03-16T17:10:56.236Z,11.30
2019-03-16T17:13:22.566Z,11.30
2019-03-16T17:15:48.895Z,11.20
2019-03-16T17:18:15.278Z,11.20
2019-03-16T17:20:41.699Z,11.20
2019-03-16T17:23:08.048Z,11.20
2019-03-16T17:25:34.368Z,11.20
2019-03-16T17:28:01.061Z,11.20
2019-03-16T17:30:32.985Z,11.20
2019-03-16T17:32:59.909Z,11.20
2019-03-16T17:35:27.493Z,11.20
2019-03-16T17:37:54.184Z,11.20
2019-03-16T17:40:20.688Z,11.20
2019-03-16T17:42:47.139Z,11.20
2019-03-16T17:45:13.544Z,11.20
2019-03-16T17:47:40.230Z,11.10
2019-03-16T17:50:15.253Z,11.10
2019-03-16T17:52:41.711Z,11.10
2019-03-16T17:55:10.677Z,11.10
2019-03-16T17:57:37.331Z,11.10
2019-03-16T18:00:09.269Z,11.00
2019-03-16T18:02:50.379Z,11.00
2019-03-16T18:05:07.661Z,11.00
2019-03-16T18:07:34.329Z,11.00
2019-03-16T18:10:00.701Z,11.00
2019-03-16T18:12:27.294Z,11.00
2019-03-16T18:14:53.601Z,11.00
2019-03-16T18:17:20.251Z,11.00
2019-03-16T18:19:46.737Z,11.00
2019-03-16T18:22:13.335Z,10.90
2019-03-16T18:24:39.689Z,10.90
2019-03-16T18:27:07.893Z,11.00
2019-03-16T18:29:34.251Z,11.00
2019-03-16T18:32:07.743Z,11.10
2019-03-16T18:34:28.851Z,11.10
2019-03-16T18:36:55.209Z,11.10
2019-03-16T18:39:21.559Z,11.10
2019-03-16T18:41:47.901Z,11.10
2019-03-16T18:44:14.237Z,11.10
2019-03-16T18:46:41.448Z,11.10
2019-03-16T18:49:08.229Z,11.10
2019-03-16T18:51:34.589Z,11.10
2019-03-16T18:54:01.287Z,11.20
2019-03-16T18:56:28.026Z,11.20
2019-03-16T18:58:54.774Z,11.20
2019-03-16T19:01:21.091Z,11.30
2019-03-16T19:03:47.745Z,11.30
2019-03-16T19:06:14.068Z,11.20
2019-03-16T19:08:40.740Z,11.10
2019-03-16T19:11:07.470Z,11.10
2019-03-16T19:13:33.911Z,11.00
2019-03-16T19:16:00.637Z,11.10
2019-03-16T19:18:28.262Z,11.10
2019-03-16T19:20:54.723Z,11.10
2019-03-16T19:23:21.877Z,11.00
2019-03-16T19:25:50.325Z,11.10
2019-03-16T19:28:18.529Z,11.10
2019-03-16T19:30:45.296Z,11.00
2019-03-16T19:33:11.710Z,11.00
2019-03-16T19:35:39.675Z,11.00
2019-03-16T19:38:06.426Z,11.10
2019-03-16T19:40:32.748Z,11.10
2019-03-16T19:42:59.459Z,11.10
2019-03-16T19:45:26.444Z,11.10
2019-03-16T19:47:53.044Z,11.10
2019-03-16T19:50:19.380Z,11.10
2019-03-16T19:52:46.256Z,11.10
2019-03-16T19:55:13.487Z,11.10
2019-03-16T19:57:41.201Z,11.10
2019-03-16T20:00:15.560Z,11.00
2019-03-16T20:02:50.073Z,11.00
2019-03-16T20:05:11.272Z,11.00
2019-03-16T20:07:37.795Z,11.00
2019-03-16T20:10:11.886Z,11.00
2019-03-16T20:12:38.737Z,11.00
2019-03-16T20:15:09.066Z,11.00
2019-03-16T20:17:35.691Z,11.00
2019-03-16T20:20:15.968Z,10.90
2019-03-16T20:22:45.164Z,10.90
2019-03-16T20:25:11.860Z,11.00
2019-03-16T20:27:38.336Z,11.00
2019-03-16T20:30:12.594Z,11.00
2019-03-16T20:32:39.179Z,11.00
2019-03-16T20:35:07.505Z,10.90
2019-03-16T20:37:35.326Z,11.00
2019-03-16T20:40:01.855Z,10.90
2019-03-16T20:42:29.992Z,10.90
2019-03-16T20:44:56.847Z,10.90
2019-03-16T20:47:23.485Z,10.90
2019-03-16T20:49:50.274Z,10.90
2019-03-16T20:52:17.001Z,10.90
2019-03-16T20:54:43.648Z,10.90
2019-03-16T20:57:10.074Z,10.90
2019-03-16T20:59:37.905Z,10.80
2019-03-16T21:02:04.262Z,10.80
2019-03-16T21:04:30.616Z,10.90
2019-03-16T21:06:56.936Z,10.90
2019-03-16T21:09:25.714Z,10.90
2019-03-16T21:11:52.051Z,10.90
2019-03-16T21:14:18.552Z,10.90
2019-03-16T21:16:44.919Z,10.90
2019-03-16T21:19:11.232Z,10.90
2019-03-16T21:21:37.582Z,11.00
2019-03-16T21:24:04.045Z,10.90
2019-03-16T21:26:30.448Z,10.90
2019-03-16T21:28:57.190Z,10.90
2019-03-16T21:31:23.883Z,10.90
2019-03-16T21:33:52.187Z,10.80
2019-03-16T21:36:18.551Z,10.90
2019-03-16T21:38:44.884Z,10.80
2019-03-16T21:41:11.346Z,10.80
2019-03-16T21:43:37.664Z,10.90
2019-03-16T21:46:04.080Z,10.90
2019-03-16T21:48:30.901Z,10.80
2019-03-16T21:50:57.511Z,10.70
2019-03-16T21:53:25.428Z,10.70
2019-03-16T21:55:51.878Z,10.70
2019-03-16T21:58:18.335Z,10.70
2019-03-16T22:00:44.775Z,10.70
2019-03-16T22:03:11.105Z,10.70
2019-03-16T22:05:37.857Z,10.60
2019-03-16T22:08:04.176Z,10.60
2019-03-16T22:10:30.541Z,10.60
2019-03-16T22:12:57.175Z,10.60
2019-03-16T22:15:23.913Z,10.60
2019-03-16T22:17:50.265Z,10.60
2019-03-16T22:20:18.560Z,10.70
2019-03-16T22:22:44.852Z,10.70
2019-03-16T22:25:11.408Z,10.70
2019-03-16T22:27:37.787Z,10.60
2019-03-16T22:30:10.817Z,10.60
2019-03-16T22:32:37.177Z,10.60
2019-03-16T22:35:05.348Z,10.60
2019-03-16T22:37:31.780Z,10.50
2019-03-16T22:39:58.466Z,10.70
2019-03-16T22:42:25.676Z,10.60
2019-03-16T22:44:52.085Z,10.50
2019-03-16T22:47:18.703Z,10.60
2019-03-16T22:49:45.065Z,10.70
2019-03-16T22:52:11.380Z,10.70
2019-03-16T22:54:38.119Z,10.60
2019-03-16T22:57:04.720Z,10.60
2019-03-16T22:59:31.081Z,10.70
2019-03-16T23:01:57.798Z,10.70
2019-03-16T23:04:24.487Z,10.60
2019-03-16T23:06:51.220Z,10.50
2019-03-16T23:10:00.678Z,10.50
2019-03-16T23:14:00.031Z,10.50
2019-03-16T23:17:09.084Z,10.50
2019-03-16T23:19:35.422Z,10.40
2019-03-16T23:22:01.752Z,10.40
2019-03-16T23:24:28.119Z,10.40
2019-03-16T23:26:54.554Z,10.40
2019-03-16T23:29:20.986Z,10.20
2019-03-16T23:31:47.693Z,10.20
2019-03-16T23:34:18.977Z,10.10
2019-03-16T23:36:42.683Z,10.00
2019-03-16T23:39:09.451Z,9.90
2019-03-16T23:41:36.091Z,9.80
2019-03-16T23:44:02.825Z,9.70
2019-03-16T23:46:29.160Z,9.60
2019-03-16T23:48:55.475Z,9.50
2019-03-16T23:51:21.783Z,9.50
2019-03-16T23:53:48.182Z,9.50
2019-03-16T23:56:14.556Z,9.50
2019-03-16T23:58:40.906Z,9.60
